Time;durP1;ratioP1;P1;durP2;ratioP2;P2;SDS_P1;SDS_P2;PMS_P1;PMS_P2;Temp;Humidity;BMP_temperature;BMP_pressure;BME280_temperature;BME280_humidity;BME280_pressure;Samples;Min_cycle;Max_cycle;Signal;HPM_P1;HPM_P2
2022/03/09 00:01:14;;;;;;;17.58;10.80;;;;;;;3.44;61.98;102126.06;5063377;28;20099;-71
2022/03/09 00:03:39;;;;;;;15.18;9.52;;;;;;;3.42;62.73;102129.34;5048747;28;20071;-72
2022/03/09 00:06:05;;;;;;;15.20;9.75;;;;;;;3.37;62.59;102129.94;5048131;28;20183;-71
2022/03/09 00:08:30;;;;;;;17.33;9.60;;;;;;;3.31;63.09;102141.66;5056399;28;20025;-71
2022/03/09 00:10:55;;;;;;;16.40;9.77;;;;;;;3.23;63.73;102128.16;5043901;28;20028;-71
2022/03/09 00:13:20;;;;;;;20.27;12.20;;;;;;;3.16;63.60;102142.44;5067855;28;20027;-71
2022/03/09 00:15:46;;;;;;;15.85;9.88;;;;;;;3.18;63.99;102145.13;5060276;28;20108;-71
2022/03/09 00:18:11;;;;;;;15.38;9.88;;;;;;;3.17;63.54;102144.25;5060156;28;20071;-72
2022/03/09 00:20:36;;;;;;;16.48;9.32;;;;;;;3.09;64.16;102154.91;5065620;28;20025;-71
2022/03/09 00:23:02;;;;;;;15.60;9.80;;;;;;;3.08;64.17;102158.31;5059408;28;20511;-72
2022/03/09 00:25:27;;;;;;;17.80;9.65;;;;;;;3.02;64.42;102153.59;5060267;28;20028;-72
2022/03/09 00:27:53;;;;;;;20.52;10.98;;;;;;;2.97;65.43;102149.78;5060704;28;20059;-72
2022/03/09 00:30:18;;;;;;;18.80;10.45;;;;;;;2.94;65.48;102154.78;5070157;28;20029;-72
2022/03/09 00:32:43;;;;;;;16.48;10.50;;;;;;;2.92;65.38;102158.97;5055543;28;20028;-73
2022/03/09 00:35:09;;;;;;;16.60;9.85;;;;;;;2.89;64.92;102159.66;5062296;28;20025;-72
2022/03/09 00:37:35;;;;;;;17.40;10.32;;;;;;;2.88;65.05;102165.66;5049422;28;20420;-72
2022/03/09 00:40:01;;;;;;;22.63;10.82;;;;;;;2.83;65.07;102167.03;5067474;28;20024;-72
2022/03/09 00:42:27;;;;;;;18.48;10.95;;;;;;;2.82;65.41;102165.22;5071221;28;20055;-72
2022/03/09 00:44:52;;;;;;;20.58;10.73;;;;;;;2.80;65.77;102172.03;5060007;28;20381;-72
2022/03/09 00:47:17;;;;;;;20.13;10.50;;;;;;;2.80;65.51;102166.81;5061862;28;20139;-72
2022/03/09 00:49:43;;;;;;;18.67;11.73;;;;;;;2.76;65.56;102180.41;5054598;28;20032;-72
2022/03/09 00:52:08;;;;;;;17.40;10.48;;;;;;;2.74;65.62;102177.69;5060046;28;20123;-72
2022/03/09 00:54:34;;;;;;;22.88;9.63;;;;;;;2.71;65.31;102187.84;5064211;28;20024;-72
2022/03/09 00:56:59;;;;;;;16.48;10.75;;;;;;;2.73;66.57;102185.34;5037142;28;20025;-72
2022/03/09 00:59:24;;;;;;;20.65;11.18;;;;;;;2.67;66.00;102181.56;5055466;28;20025;-72
2022/03/09 01:01:50;;;;;;;18.80;11.55;;;;;;;2.66;66.13;102171.97;5063066;28;20112;-72
2022/03/09 01:04:15;;;;;;;15.93;10.48;;;;;;;2.63;65.74;102179.53;5061495;28;20055;-72
2022/03/09 01:06:40;;;;;;;21.35;11.05;;;;;;;2.61;66.03;102175.91;5067097;28;20028;-72
2022/03/09 01:09:06;;;;;;;17.10;10.70;;;;;;;2.57;66.11;102173.00;5059705;28;20036;-72
2022/03/09 01:11:31;;;;;;;14.75;9.82;;;;;;;2.55;66.30;102170.31;5061989;28;20104;-72
2022/03/09 01:13:57;;;;;;;17.48;11.38;;;;;;;2.53;66.11;102171.88;5054016;28;20033;-72
2022/03/09 01:16:22;;;;;;;16.52;9.65;;;;;;;2.49;66.03;102175.06;5038817;28;20056;-72
2022/03/09 01:18:48;;;;;;;15.30;10.18;;;;;;;2.48;66.09;102174.16;5051699;28;20028;-72
2022/03/09 01:21:13;;;;;;;17.50;10.55;;;;;;;2.48;65.93;102173.25;5058678;28;20029;-72
2022/03/09 01:23:39;;;;;;;19.08;10.80;;;;;;;2.46;66.74;102175.75;5048224;28;20024;-71
2022/03/09 01:26:04;;;;;;;21.73;10.85;;;;;;;2.45;66.44;102167.84;5068624;28;20546;-73
2022/03/09 01:28:29;;;;;;;18.33;10.90;;;;;;;2.44;66.43;102176.41;5053337;28;20025;-72
2022/03/09 01:30:55;;;;;;;15.15;9.98;;;;;;;2.40;66.81;102177.00;5055075;28;20457;-73
2022/03/09 01:33:20;;;;;;;18.08;10.57;;;;;;;2.34;66.49;102180.94;5055102;28;20033;-73
2022/03/09 01:35:45;;;;;;;18.35;10.68;;;;;;;2.34;67.10;102174.88;5059652;28;20465;-72
2022/03/09 01:38:11;;;;;;;20.10;10.50;;;;;;;2.29;67.42;102174.56;5056576;28;20464;-72
2022/03/09 01:40:36;;;;;;;19.73;10.65;;;;;;;2.28;66.94;102170.16;5062710;28;20025;-73
2022/03/09 01:43:02;;;;;;;20.67;11.40;;;;;;;2.25;67.09;102169.94;5054498;28;20165;-72
2022/03/09 01:45:27;;;;;;;21.52;10.80;;;;;;;2.25;67.39;102176.81;5052274;28;20024;-71
2022/03/09 01:47:53;;;;;;;18.08;10.73;;;;;;;2.21;67.54;102170.47;5069456;28;20039;-72
2022/03/09 01:50:21;;;;;;;17.05;9.93;;;;;;;2.21;67.22;102167.88;5056250;28;20024;-72
2022/03/09 01:52:46;;;;;;;22.75;10.20;;;;;;;2.20;67.32;102166.09;5052907;28;20056;-72
2022/03/09 01:55:12;;;;;;;19.40;10.57;;;;;;;2.16;67.55;102156.28;5063189;28;20033;-72
2022/03/09 01:57:40;;;;;;;20.35;11.52;;;;;;;2.17;67.10;102159.00;5056760;28;20024;-72
2022/03/09 02:00:06;;;;;;;16.05;9.77;;;;;;;2.18;67.46;102152.09;5036708;28;20036;-72
2022/03/09 02:02:31;;;;;;;18.80;10.25;;;;;;;2.17;67.40;102150.28;5054078;28;20020;-70
2022/03/09 02:04:57;;;;;;;17.35;10.30;;;;;;;2.16;67.59;102151.09;5057169;28;20047;-72
2022/03/09 02:09:41;;;;;;;19.77;11.18;;;;;;;2.16;67.75;102153.69;5060344;28;20027;-72
2022/03/09 02:10:09;;;;;;;18.92;9.82;;;;;;;2.13;67.67;102150.84;5058462;28;20468;-72
2022/03/09 02:12:34;;;;;;;16.25;10.85;;;;;;;2.12;67.86;102149.06;5063641;28;20062;-72
2022/03/09 02:15:01;;;;;;;18.15;10.77;;;;;;;2.09;67.94;102151.41;5062365;28;20493;-72
2022/03/09 02:17:28;;;;;;;20.75;10.38;;;;;;;2.03;68.19;102141.50;5053612;28;20033;-72
2022/03/09 02:19:54;;;;;;;18.02;10.65;;;;;;;2.00;68.56;102156.88;5039589;28;20031;-72
2022/03/09 02:22:19;;;;;;;16.88;9.90;;;;;;;1.98;67.98;102156.75;5057997;28;20389;-72
2022/03/09 02:24:48;;;;;;;16.58;10.63;;;;;;;1.97;68.75;102159.25;5052924;28;20043;-72
2022/03/09 02:27:14;;;;;;;17.83;10.98;;;;;;;1.93;68.42;102159.81;5061137;28;20096;-72
2022/03/09 02:29:39;;;;;;;17.50;11.27;;;;;;;1.88;68.97;102161.16;5045605;28;20477;-72
2022/03/09 02:32:05;;;;;;;21.55;11.35;;;;;;;1.87;68.96;102156.75;5062532;28;20028;-71
2022/03/09 02:34:31;;;;;;;17.35;10.18;;;;;;;1.84;69.83;102160.03;5069120;28;20031;-71
2022/03/09 02:36:57;;;;;;;19.55;11.15;;;;;;;1.82;69.12;102151.25;5038328;28;20045;-72
2022/03/09 02:39:23;;;;;;;22.20;10.85;;;;;;;1.79;70.05;102156.19;5040844;28;20516;-72
2022/03/09 02:41:48;;;;;;;17.38;10.20;;;;;;;1.77;69.75;102157.78;5060268;28;20023;-72
2022/03/09 02:44:14;;;;;;;18.70;10.52;;;;;;;1.74;69.71;102153.28;5067248;28;20033;-72
2022/03/09 02:46:39;;;;;;;17.25;10.32;;;;;;;1.72;70.22;102148.75;5056780;28;20101;-72
2022/03/09 02:49:05;;;;;;;20.17;11.10;;;;;;;1.72;69.90;102159.13;5053520;28;20481;-72
2022/03/09 02:51:30;;;;;;;17.17;10.85;;;;;;;1.67;70.41;102157.09;5060443;28;20049;-72
2022/03/09 02:53:55;;;;;;;18.25;10.45;;;;;;;1.67;70.31;102153.63;5048381;28;20393;-72
2022/03/09 02:56:21;;;;;;;21.25;10.50;;;;;;;1.68;70.24;102148.53;5056231;28;20465;-72
2022/03/09 02:58:46;;;;;;;17.10;9.45;;;;;;;1.69;70.57;102146.84;5070565;28;20483;-71
2022/03/09 03:01:13;;;;;;;17.08;10.27;;;;;;;1.68;70.50;102139.81;5070860;28;20472;-71
2022/03/09 03:03:40;;;;;;;15.70;9.75;;;;;;;1.68;69.84;102147.63;5062696;28;20392;-72
2022/03/09 03:06:06;;;;;;;21.90;10.77;;;;;;;1.68;70.08;102143.34;5059368;28;20484;-72
2022/03/09 03:08:33;;;;;;;22.65;10.57;;;;;;;1.68;69.90;102138.16;5056127;28;20077;-72
2022/03/09 03:10:58;;;;;;;19.60;10.65;;;;;;;1.65;69.71;102139.63;5070893;28;20078;-72
2022/03/09 03:13:24;;;;;;;16.77;9.75;;;;;;;1.66;69.75;102144.03;5042929;28;20517;-72
2022/03/09 03:15:49;;;;;;;17.20;9.57;;;;;;;1.64;70.22;102138.72;5058342;28;20106;-71
2022/03/09 03:18:14;;;;;;;18.05;10.77;;;;;;;1.63;70.03;102144.69;5066682;28;20076;-71
2022/03/09 03:20:40;;;;;;;15.05;9.32;;;;;;;1.63;69.66;102136.91;5062883;28;20052;-72
2022/03/09 03:23:05;;;;;;;20.70;10.52;;;;;;;1.64;69.45;102136.13;5063568;28;20029;-72
2022/03/09 03:25:30;;;;;;;16.70;10.15;;;;;;;1.65;69.46;102145.69;5063109;28;20021;-72
2022/03/09 03:27:56;;;;;;;17.17;10.10;;;;;;;1.62;70.02;102150.66;5059667;28;20462;-73
2022/03/09 03:30:21;;;;;;;15.15;9.52;;;;;;;1.61;69.68;102142.78;5059494;28;20020;-72
2022/03/09 03:32:46;;;;;;;16.58;9.73;;;;;;;1.60;69.98;102148.75;5056699;28;20468;-73
2022/03/09 03:35:12;;;;;;;19.70;10.85;;;;;;;1.59;70.19;102141.78;5060743;28;20016;-72
2022/03/09 03:37:40;;;;;;;15.20;10.15;;;;;;;1.55;69.91;102140.63;5060716;28;20056;-72
2022/03/09 03:40:06;;;;;;;16.90;10.27;;;;;;;1.51;70.23;102138.59;5043854;28;20032;-72
2022/03/09 03:42:31;;;;;;;16.20;10.00;;;;;;;1.51;70.09;102143.78;5065959;28;20408;-72
2022/03/09 03:44:56;;;;;;;17.73;10.27;;;;;;;1.45;70.26;102149.44;5059313;28;20036;-72
2022/03/09 03:47:22;;;;;;;16.52;9.88;;;;;;;1.41;71.19;102141.28;5056367;28;20082;-72
2022/03/09 03:49:47;;;;;;;16.42;9.60;;;;;;;1.42;71.09;102143.09;5061547;28;20077;-72
2022/03/09 03:52:13;;;;;;;18.35;10.00;;;;;;;1.39;71.56;102142.88;5061035;28;20040;-72
2022/03/09 03:54:38;;;;;;;16.30;10.45;;;;;;;1.35;71.69;102141.72;5052220;28;20021;-72
2022/03/09 03:57:04;;;;;;;17.02;9.60;;;;;;;1.31;71.52;102134.50;5058557;28;20033;-72
2022/03/09 03:59:29;;;;;;;17.60;9.27;;;;;;;1.28;71.63;102135.19;5058410;28;20032;-72
2022/03/09 04:01:54;;;;;;;23.52;11.70;;;;;;;1.24;72.45;102138.34;5040019;28;20025;-72
2022/03/09 04:04:19;;;;;;;17.73;9.80;;;;;;;1.22;72.86;102139.94;5073002;28;20080;-72
2022/03/09 04:06:45;;;;;;;16.63;10.35;;;;;;;1.18;72.83;102137.88;5055773;28;20031;-72
2022/03/09 04:09:10;;;;;;;19.90;10.43;;;;;;;1.15;73.02;102140.22;5059183;28;20036;-72
2022/03/09 04:11:35;;;;;;;14.57;9.93;;;;;;;1.16;72.62;102140.34;5067293;28;20047;-71
2022/03/09 04:14:01;;;;;;;17.30;10.07;;;;;;;1.16;72.74;102139.44;5040583;28;20040;-72
2022/03/09 04:16:26;;;;;;;17.00;9.85;;;;;;;1.14;73.17;102135.81;5059211;28;20024;-72
2022/03/09 04:18:51;;;;;;;15.20;9.57;;;;;;;1.09;73.14;102142.38;5068148;28;20044;-72
2022/03/09 04:21:16;;;;;;;19.33;10.10;;;;;;;1.07;73.22;102136.16;5052507;28;20103;-72
2022/03/09 04:23:42;;;;;;;15.68;9.55;;;;;;;1.07;73.27;102138.75;5061630;28;20036;-72
2022/03/09 04:26:07;;;;;;;15.50;9.50;;;;;;;1.05;74.12;102140.34;5062720;28;20032;-72
2022/03/09 04:28:33;;;;;;;19.92;10.45;;;;;;;1.00;74.30;102140.91;5043554;28;20492;-73
2022/03/09 04:30:59;;;;;;;17.58;10.40;;;;;;;1.02;74.29;102146.19;5050858;28;20035;-72
2022/03/09 04:33:24;;;;;;;15.73;9.68;;;;;;;0.98;74.42;102139.84;5066009;28;20054;-72
2022/03/09 04:35:50;;;;;;;20.35;10.77;;;;;;;0.95;74.88;102137.03;5059167;28;20203;-72
2022/03/09 04:38:16;;;;;;;18.88;10.35;;;;;;;0.96;75.59;102141.44;5059809;28;20039;-73
2022/03/09 04:40:41;;;;;;;20.00;9.88;;;;;;;0.92;74.79;102139.38;5046409;28;20037;-72
2022/03/09 04:43:06;;;;;;;17.38;10.13;;;;;;;0.87;75.14;102134.63;5042389;28;20025;-72
2022/03/09 04:45:32;;;;;;;16.73;9.88;;;;;;;0.84;75.84;102136.22;5062237;28;20042;-72
2022/03/09 04:47:57;;;;;;;16.80;9.82;;;;;;;0.83;75.56;102137.00;5053879;28;20028;-72
2022/03/09 04:50:23;;;;;;;18.95;10.38;;;;;;;0.84;75.61;102140.47;5055137;28;20017;-72
2022/03/09 04:52:51;;;;;;;19.45;10.35;;;;;;;0.81;76.17;102148.03;5057750;28;20037;-72
2022/03/09 04:55:17;;;;;;;15.23;8.95;;;;;;;0.78;75.85;102146.09;5056422;28;20040;-72
2022/03/09 04:57:42;;;;;;;17.83;10.93;;;;;;;0.79;75.64;102153.09;5043860;28;20465;-72
2022/03/09 05:00:09;;;;;;;20.63;10.05;;;;;;;0.75;76.25;102151.06;5056421;28;20025;-73
2022/03/09 05:02:35;;;;;;;24.58;11.05;;;;;;;0.76;75.76;102157.13;5056915;28;20032;-73
2022/03/09 05:05:00;;;;;;;17.08;9.45;;;;;;;0.77;76.35;102153.75;5059474;28;20040;-72
2022/03/09 05:07:25;;;;;;;17.02;9.77;;;;;;;0.76;75.85;102154.53;5041470;28;20492;-72
2022/03/09 05:09:51;;;;;;;20.45;9.48;;;;;;;0.78;76.15;102156.47;5057837;28;20111;-72
2022/03/09 05:12:16;;;;;;;19.25;9.95;;;;;;;0.80;76.28;102166.94;5037524;28;20021;-72
2022/03/09 05:14:41;;;;;;;20.05;9.75;;;;;;;0.83;76.29;102162.03;5053287;28;20024;-71
2022/03/09 05:17:07;;;;;;;18.42;9.82;;;;;;;0.79;76.34;102163.47;5061486;28;20420;-72
2022/03/09 05:19:32;;;;;;;18.38;10.00;;;;;;;0.79;76.83;102168.63;5063464;28;20024;-72
2022/03/09 05:21:57;;;;;;;23.80;10.07;;;;;;;0.77;77.97;102166.72;5063051;28;20476;-73
2022/03/09 05:24:23;;;;;;;14.50;9.77;;;;;;;0.74;76.44;102174.25;5038106;28;20035;-72
2022/03/09 05:26:48;;;;;;;15.05;9.05;;;;;;;0.73;76.64;102162.06;5066808;28;20094;-72
2022/03/09 05:29:14;;;;;;;16.70;10.15;;;;;;;0.70;76.49;102167.03;5043326;28;20099;-72
2022/03/09 05:31:40;;;;;;;16.83;9.88;;;;;;;0.70;76.54;102167.91;5060962;28;20107;-71
2022/03/09 05:34:06;;;;;;;18.77;9.82;;;;;;;0.73;77.71;102167.25;5054641;28;20024;-72
2022/03/09 05:36:32;;;;;;;20.83;10.88;;;;;;;0.67;77.09;102173.75;5048244;28;20409;-72
2022/03/09 05:38:57;;;;;;;15.45;10.02;;;;;;;0.60;78.26;102171.47;5063996;28;20052;-72
2022/03/09 05:41:22;;;;;;;19.60;9.73;;;;;;;0.56;79.52;102177.22;5066586;28;20020;-72
2022/03/09 05:43:52;;;;;;;18.02;10.07;;;;;;;0.54;78.54;102177.88;5065218;28;20115;-72
2022/03/09 05:46:17;;;;;;;18.98;9.73;;;;;;;0.54;78.53;102181.34;5070287;28;20021;-72
2022/03/09 05:48:43;;;;;;;19.75;9.15;;;;;;;0.55;77.25;102180.56;5064519;28;20116;-72
2022/03/09 05:51:08;;;;;;;18.67;9.32;;;;;;;0.55;78.05;102174.50;5057652;28;20021;-72
2022/03/09 05:53:34;;;;;;;17.45;9.70;;;;;;;0.53;77.48;102173.47;5055994;28;20029;-73
2022/03/09 05:55:59;;;;;;;15.88;9.18;;;;;;;0.53;77.20;102184.75;5061458;28;20036;-72
2022/03/09 05:58:25;;;;;;;18.73;9.65;;;;;;;0.51;77.14;102186.28;5058376;28;20138;-72
2022/03/09 06:00:50;;;;;;;13.60;8.63;;;;;;;0.50;76.91;102188.00;5062636;28;20054;-73
2022/03/09 06:03:16;;;;;;;20.35;9.70;;;;;;;0.53;76.84;102195.09;5057392;28;20520;-73
2022/03/09 06:05:41;;;;;;;17.35;9.57;;;;;;;0.54;76.46;102190.81;5061495;28;20033;-71
2022/03/09 06:08:06;;;;;;;15.65;9.52;;;;;;;0.53;76.19;102189.94;5061548;28;20349;-72
2022/03/09 06:10:32;;;;;;;20.65;9.73;;;;;;;0.54;76.61;102191.72;5062902;28;20479;-71
2022/03/09 06:12:58;;;;;;;15.35;9.25;;;;;;;0.56;76.66;102191.84;5049711;28;20029;-74
2022/03/09 06:15:23;;;;;;;18.55;9.10;;;;;;;0.55;76.14;102188.34;5062664;28;20082;-72
2022/03/09 06:17:50;;;;;;;18.92;9.25;;;;;;;0.56;77.44;102195.34;5039360;28;20508;-72
2022/03/09 06:20:20;;;;;;;16.27;9.73;;;;;;;0.55;77.10;102188.34;5058941;28;20067;-72
2022/03/09 06:22:47;;;;;;;17.30;9.45;;;;;;;0.55;77.74;102193.53;5059200;28;20511;-72
2022/03/09 06:25:15;;;;;;;16.58;9.65;;;;;;;0.54;78.22;102191.72;5044532;28;20024;-79
2022/03/09 06:27:42;;;;;;;17.98;10.32;;;;;;;0.47;79.71;102186.84;5046482;28;20025;-82
2022/03/09 06:30:10;;;;;;;23.17;9.82;;;;;;;0.45;79.63;102197.06;5052688;28;20024;-79
2022/03/09 06:32:36;;;;;;;22.25;9.93;;;;;;;0.47;79.66;102194.59;5054143;28;20089;-79
2022/03/09 06:35:03;;;;;;;19.33;9.95;;;;;;;0.50;79.23;102202.59;5069343;28;20021;-79
2022/03/09 06:37:28;;;;;;;17.75;9.95;;;;;;;0.54;78.88;102199.47;5053439;28;20024;-78
2022/03/09 06:39:56;;;;;;;15.75;9.55;;;;;;;0.56;78.04;102189.28;5049842;28;20037;-80
2022/03/09 06:42:23;;;;;;;16.35;9.55;;;;;;;0.62;77.32;102197.50;5054353;28;20077;-80
2022/03/09 06:44:48;;;;;;;29.52;11.20;;;;;;;0.67;77.06;102194.47;5065258;28;20370;-81
2022/03/09 06:47:13;;;;;;;18.27;9.93;;;;;;;0.69;77.13;102196.31;5062058;28;20036;-78
2022/03/09 06:49:39;;;;;;;19.75;10.18;;;;;;;0.73;76.99;102200.94;5048922;28;20024;-79
2022/03/09 06:52:05;;;;;;;21.80;10.02;;;;;;;0.78;76.51;102197.03;5067211;28;20123;-80
2022/03/09 06:54:30;;;;;;;25.85;10.57;;;;;;;0.82;75.81;102199.97;5056613;28;20043;-81
2022/03/09 06:56:55;;;;;;;15.90;9.45;;;;;;;0.91;75.43;102191.09;5054305;28;20054;-82
2022/03/09 06:59:21;;;;;;;26.10;11.23;;;;;;;0.95;75.05;102196.66;5068048;28;20036;-73
2022/03/09 07:01:46;;;;;;;20.23;9.82;;;;;;;0.99;74.62;102201.28;5067071;28;20036;-74
2022/03/09 07:04:11;;;;;;;21.33;9.65;;;;;;;1.06;74.69;102199.16;5052817;28;20020;-73
2022/03/09 07:06:37;;;;;;;17.60;9.27;;;;;;;1.09;74.00;102196.81;5057194;28;20465;-73
2022/03/09 07:09:03;;;;;;;24.65;9.75;;;;;;;1.15;74.28;102199.84;5052117;28;20465;-73
2022/03/09 07:11:28;;;;;;;17.92;9.60;;;;;;;1.17;74.01;102203.50;5043293;28;20447;-73
2022/03/09 07:13:53;;;;;;;17.40;9.70;;;;;;;1.20;73.31;102200.22;5059214;28;20491;-72
2022/03/09 07:16:19;;;;;;;23.83;9.60;;;;;;;1.23;74.03;102198.75;5057062;28;20472;-73
2022/03/09 07:18:44;;;;;;;26.08;10.10;;;;;;;1.29;73.33;102208.69;5055990;28;20473;-74
2022/03/09 07:21:09;;;;;;;20.33;9.40;;;;;;;1.35;73.45;102209.16;5052293;28;20071;-74
2022/03/09 07:23:35;;;;;;;14.55;9.10;;;;;;;1.41;73.07;102208.72;5034883;28;20025;-74
2022/03/09 07:26:00;;;;;;;19.42;9.13;;;;;;;1.45;73.09;102210.75;5040817;28;20056;-73
2022/03/09 07:28:25;;;;;;;19.08;9.90;;;;;;;1.48;73.04;102211.91;5061558;28;20036;-73
2022/03/09 07:30:51;;;;;;;22.38;10.15;;;;;;;1.52;72.91;102218.25;5044472;28;20408;-73
2022/03/09 07:33:17;;;;;;;18.05;9.57;;;;;;;1.58;72.96;102221.28;5066392;28;20024;-73
2022/03/09 07:35:45;;;;;;;18.17;9.80;;;;;;;1.62;72.50;102220.72;5070251;28;20476;-72
2022/03/09 07:38:10;;;;;;;18.65;9.85;;;;;;;1.65;72.19;102220.94;5047598;28;20075;-72
2022/03/09 07:40:36;;;;;;;27.83;10.73;;;;;;;1.76;71.59;102218.25;5054579;28;20456;-73
2022/03/09 07:43:01;;;;;;;18.98;9.98;;;;;;;1.79;71.38;102227.19;5071666;28;20522;-73
2022/03/09 07:45:26;;;;;;;15.35;10.52;;;;;;;1.87;70.92;102217.34;5067335;28;20040;-72
2022/03/09 07:47:52;;;;;;;49.05;11.85;;;;;;;1.94;71.28;102234.28;5054049;28;20016;-73
2022/03/09 07:50:17;;;;;;;22.67;11.00;;;;;;;1.96;70.54;102235.31;5070711;28;20372;-73
2022/03/09 07:52:42;;;;;;;27.17;10.48;;;;;;;1.99;70.86;102231.25;5070023;28;20064;-73
2022/03/09 07:55:08;;;;;;;21.85;10.10;;;;;;;2.03;70.49;102224.56;5071861;28;20021;-73
2022/03/09 07:57:34;;;;;;;18.17;10.23;;;;;;;2.06;70.62;102230.00;5073041;28;20032;-73
2022/03/09 08:00:00;;;;;;;23.75;10.60;;;;;;;2.07;70.50;102231.81;5052571;28;20032;-73
2022/03/09 08:02:25;;;;;;;17.58;9.80;;;;;;;2.14;70.12;102233.16;5071513;28;20107;-72
2022/03/09 08:04:51;;;;;;;19.40;10.35;;;;;;;2.18;70.67;102230.00;5072168;28;20054;-72
2022/03/09 08:07:16;;;;;;;21.92;9.63;;;;;;;2.21;70.67;102227.59;5069042;28;20395;-72
2022/03/09 08:09:41;;;;;;;18.58;10.00;;;;;;;2.30;70.66;102230.00;5072679;28;20116;-74
2022/03/09 08:12:11;;;;;;;17.20;10.00;;;;;;;2.38;71.07;102233.16;5071408;28;20104;-74
2022/03/09 08:14:36;;;;;;;15.27;10.38;;;;;;;2.43;69.97;102231.75;5072301;28;20043;-72
2022/03/09 08:17:01;;;;;;;19.23;10.48;;;;;;;2.48;70.02;102231.31;5063730;28;20465;-75
2022/03/09 08:19:28;;;;;;;17.10;9.50;;;;;;;2.56;69.86;102228.38;5061446;28;20052;-73
2022/03/09 08:21:53;;;;;;;14.38;9.52;;;;;;;2.65;69.46;102229.03;5059101;28;20129;-74
2022/03/09 08:24:18;;;;;;;23.02;10.50;;;;;;;2.72;69.14;102226.06;5066814;28;20056;-73
2022/03/09 08:26:45;;;;;;;19.45;10.18;;;;;;;2.80;69.14;102229.22;5072969;28;20103;-72
2022/03/09 08:29:10;;;;;;;15.20;9.55;;;;;;;2.86;68.81;102230.53;5068756;28;20055;-73
2022/03/09 08:31:36;;;;;;;21.70;10.27;;;;;;;2.93;68.57;102225.75;5055978;28;20036;-73
2022/03/09 08:34:01;;;;;;;15.70;9.88;;;;;;;3.01;68.35;102225.50;5054865;28;20025;-73
2022/03/09 08:36:26;;;;;;;19.80;10.07;;;;;;;3.11;68.24;102226.16;5052473;28;20026;-75
2022/03/09 08:38:52;;;;;;;17.63;9.65;;;;;;;3.18;67.41;102236.19;5051375;28;20028;-74
2022/03/09 08:41:17;;;;;;;27.63;10.55;;;;;;;3.29;66.85;102237.81;5071706;28;20128;-73
2022/03/09 08:43:43;;;;;;;29.17;11.18;;;;;;;3.41;66.77;102234.25;5065798;28;20025;-74
2022/03/09 08:46:08;;;;;;;27.15;10.25;;;;;;;3.48;66.66;102229.56;5055707;28;20107;-74
2022/03/09 08:48:34;;;;;;;18.75;10.50;;;;;;;3.54;65.79;102224.78;5065988;28;20025;-74
2022/03/09 08:50:59;;;;;;;17.73;10.27;;;;;;;3.64;65.83;102231.50;5074710;28;20032;-74
2022/03/09 08:53:24;;;;;;;28.48;10.18;;;;;;;3.71;66.33;102223.28;5055613;28;20040;-73
2022/03/09 08:55:50;;;;;;;18.45;10.88;;;;;;;3.82;66.03;102220.50;5049431;28;20145;-74
2022/03/09 08:58:15;;;;;;;18.90;10.82;;;;;;;3.91;65.84;102220.19;5069735;28;20055;-76
2022/03/09 09:00:41;;;;;;;18.00;10.65;;;;;;;4.04;66.04;102222.81;5053554;28;20374;-76
2022/03/09 09:03:06;;;;;;;28.15;12.13;;;;;;;4.17;65.57;102228.03;5059566;28;20358;-76
2022/03/09 09:05:31;;;;;;;25.33;11.95;;;;;;;4.35;65.51;102227.41;5054483;28;20038;-78
2022/03/09 09:07:57;;;;;;;26.83;12.80;;;;;;;4.57;65.30;102227.06;5056616;28;20032;-76
2022/03/09 09:10:22;;;;;;;27.27;12.02;;;;;;;4.77;64.15;102230.03;5065340;28;20043;-75
2022/03/09 09:12:50;;;;;;;27.63;11.73;;;;;;;4.99;63.63;102229.66;5069271;28;20165;-75
2022/03/09 09:15:15;;;;;;;18.48;10.32;;;;;;;5.15;63.90;102234.13;5072132;28;20078;-75
2022/03/09 09:17:41;;;;;;;24.85;12.30;;;;;;;5.37;61.86;102241.53;5050518;28;20467;-75
2022/03/09 09:20:07;;;;;;;19.58;10.95;;;;;;;5.58;62.33;102242.81;5070260;28;20055;-75
2022/03/09 09:22:32;;;;;;;26.83;11.07;;;;;;;5.79;61.07;102247.50;5066526;28;20028;-75
2022/03/09 09:24:58;;;;;;;22.40;10.35;;;;;;;6.01;60.04;102231.41;5048600;28;20028;-75
2022/03/09 09:27:23;;;;;;;23.90;11.10;;;;;;;6.28;59.31;102238.13;5036482;28;20059;-75
2022/03/09 09:29:48;;;;;;;33.25;13.73;;;;;;;6.55;58.77;102233.53;5064264;28;20465;-75
2022/03/09 09:32:16;;;;;;;19.13;10.98;;;;;;;6.81;57.81;102234.06;5053282;28;20056;-75
2022/03/09 09:34:41;;;;;;;21.10;11.18;;;;;;;7.11;56.90;102226.06;5060828;28;20464;-76
2022/03/09 09:37:07;;;;;;;25.35;12.07;;;;;;;7.34;56.33;102225.56;5062875;28;20027;-75
2022/03/09 09:39:32;;;;;;;19.40;11.82;;;;;;;7.66;55.20;102218.44;5043308;28;20025;-75
2022/03/09 09:41:58;;;;;;;19.38;12.27;;;;;;;8.00;54.11;102214.88;5071974;28;20028;-75
2022/03/09 09:44:24;;;;;;;19.10;12.13;;;;;;;8.26;53.57;102207.38;5053393;28;20020;-75
2022/03/09 09:46:51;;;;;;;28.23;12.50;;;;;;;8.71;51.90;102214.78;5061336;28;20079;-75
2022/03/09 09:49:17;;;;;;;19.48;11.95;;;;;;;9.02;51.01;102209.22;5053374;28;20041;-74
2022/03/09 09:51:44;;;;;;;20.60;12.68;;;;;;;9.34;49.32;102207.09;5065085;28;20044;-75
2022/03/09 09:54:10;;;;;;;27.95;12.70;;;;;;;9.49;48.29;102211.22;5054464;28;20391;-75
2022/03/09 09:56:43;;;;;;;31.55;12.70;;;;;;;9.51;48.60;102209.53;5041878;28;20580;-75
2022/03/09 09:59:09;;;;;;;24.30;12.48;;;;;;;9.54;48.33;102209.69;5051630;28;20059;-74
2022/03/09 10:01:38;;;;;;;23.77;12.75;;;;;;;9.75;47.65;102207.97;5042174;28;20082;-75
2022/03/09 10:04:05;;;;;;;39.97;13.25;;;;;;;9.94;48.45;102209.66;5042449;28;20025;-74
2022/03/09 10:06:31;;;;;;;23.25;13.40;;;;;;;10.02;46.75;102204.69;5071824;28;20029;-74
2022/03/09 10:09:00;;;;;;;24.10;13.27;;;;;;;10.19;46.19;102209.75;5038239;28;20044;-75
2022/03/09 10:11:43;;;;;;;25.92;12.93;;;;;;;10.35;46.51;102214.81;5066319;28;20050;-75
2022/03/09 10:14:11;;;;;;;35.80;13.43;;;;;;;10.52;45.20;102206.69;5060170;28;20067;-74
2022/03/09 10:16:37;;;;;;;28.40;13.73;;;;;;;10.50;45.47;102208.34;5053563;28;20031;-74
2022/03/09 10:19:02;;;;;;;38.17;13.75;;;;;;;10.46;45.00;102213.50;5063282;28;20026;-74
2022/03/09 10:21:35;;;;;;;42.47;14.25;;;;;;;10.74;45.49;102213.66;5054308;28;20114;-74
2022/03/09 10:24:03;;;;;;;43.25;14.25;;;;;;;10.99;46.71;102215.47;5043093;28;20055;-75
2022/03/09 10:26:49;;;;;;;32.72;13.93;;;;;;;11.24;44.71;102219.88;5052776;28;20033;-75
2022/03/09 10:29:17;;;;;;;27.85;13.68;;;;;;;11.25;43.75;102220.81;5060089;28;20510;-75
2022/03/09 10:31:49;;;;;;;42.20;14.80;;;;;;;11.48;43.47;102211.97;5056456;28;20159;-75
2022/03/09 10:34:25;;;;;;;26.73;14.82;;;;;;;11.45;44.13;102208.34;5058137;28;20021;-75
2022/03/09 10:36:58;;;;;;;26.77;14.73;;;;;;;11.56;43.62;102208.72;5062168;28;20040;-75
2022/03/09 10:39:27;;;;;;;24.57;14.87;;;;;;;11.96;45.14;102217.97;5039233;28;20028;-76
2022/03/09 10:41:52;;;;;;;24.27;14.20;;;;;;;12.40;41.90;102207.03;5062944;28;20029;-75
2022/03/09 10:44:17;;;;;;;22.67;14.93;;;;;;;12.41;41.79;102215.03;5055545;28;20090;-75
2022/03/09 10:46:49;;;;;;;24.13;13.75;;;;;;;12.64;40.73;102218.38;5057292;28;20024;-74
2022/03/09 10:49:19;;;;;;;25.38;14.95;;;;;;;12.89;39.90;102213.81;5027635;28;20178;-75
2022/03/09 10:51:48;;;;;;;29.02;15.18;;;;;;;12.97;40.76;102220.22;5044577;28;20033;-75
2022/03/09 10:54:26;;;;;;;39.00;16.70;;;;;;;13.33;39.71;102221.19;5049506;28;20033;-75
2022/03/09 10:57:07;;;;;;;37.85;15.43;;;;;;;13.51;39.54;102212.94;5047260;28;20021;-74
2022/03/09 10:59:52;;;;;;;34.95;16.20;;;;;;;13.82;42.93;102219.91;5068526;28;20099;-75
2022/03/09 11:02:22;;;;;;;26.55;15.68;;;;;;;14.09;41.04;102217.88;5066437;28;20531;-75
2022/03/09 11:05:07;;;;;;;33.35;16.17;;;;;;;14.59;38.21;102220.78;5054258;28;20040;-76
2022/03/09 11:07:35;;;;;;;27.40;17.00;;;;;;;14.92;37.01;102206.53;5041725;28;20035;-75
2022/03/09 11:10:00;;;;;;;29.75;15.40;;;;;;;15.06;36.47;102208.56;5073261;28;20028;-75
2022/03/09 11:12:27;;;;;;;33.92;15.88;;;;;;;15.12;37.05;102204.25;5057697;28;20469;-74
2022/03/09 11:14:53;;;;;;;27.20;16.80;;;;;;;14.86;38.85;102200.22;5061878;28;20021;-74